createdAt,value
2018-04-18T00:00:45.490Z,67.20
2018-04-18T00:03:12.983Z,67.20
2018-04-18T00:05:40.479Z,67.21
2018-04-18T00:08:07.990Z,67.24
2018-04-18T00:10:35.636Z,67.42
2018-04-18T00:13:03.152Z,67.74
2018-04-18T00:15:30.637Z,67.52
2018-04-18T00:17:58.136Z,67.31
2018-04-18T00:20:25.651Z,67.40
2018-04-18T00:22:53.156Z,67.77
2018-04-18T00:25:20.705Z,68.10
2018-04-18T00:27:48.193Z,68.56
2018-04-18T00:30:15.711Z,68.67
2018-04-18T00:32:43.236Z,68.80
2018-04-18T00:35:10.862Z,69.06
2018-04-18T00:37:38.393Z,69.27
2018-04-18T00:40:05.931Z,69.17
2018-04-18T00:42:33.457Z,69.13
2018-04-18T00:45:00.948Z,69.36
2018-04-18T00:47:28.458Z,69.54
2018-04-18T00:49:55.977Z,69.80
2018-04-18T00:52:23.495Z,69.82
2018-04-18T00:54:51.015Z,69.87
2018-04-18T00:57:18.513Z,69.99
2018-04-18T00:59:46.024Z,69.95
2018-04-18T01:02:13.538Z,69.83
2018-04-18T01:04:41.031Z,70.08
2018-04-18T01:07:08.646Z,70.19
2018-04-18T01:09:36.210Z,69.93
2018-04-18T01:12:03.889Z,69.97
2018-04-18T01:14:31.477Z,70.28
2018-04-18T01:16:59.024Z,70.57
2018-04-18T01:19:26.779Z,70.40
2018-04-18T01:21:54.382Z,70.48
2018-04-18T01:24:21.909Z,70.51
2018-04-18T01:26:49.489Z,70.64
2018-04-18T01:29:16.991Z,70.97
2018-04-18T01:31:44.524Z,71.33
2018-04-18T01:34:12.012Z,71.65
2018-04-18T01:36:39.488Z,71.47
2018-04-18T01:39:06.953Z,71.30
2018-04-18T01:41:34.438Z,71.55
2018-04-18T01:44:01.928Z,71.67
2018-04-18T01:46:29.533Z,71.77
2018-04-18T01:49:08.857Z,72.08
2018-04-18T01:51:36.342Z,71.91
2018-04-18T01:54:03.853Z,72.00
2018-04-18T01:56:31.363Z,71.96
2018-04-18T01:58:58.849Z,72.02
2018-04-18T02:01:26.378Z,72.21
2018-04-18T02:03:53.873Z,72.28
2018-04-18T02:06:21.426Z,72.42
2018-04-18T02:08:48.932Z,72.42
2018-04-18T02:11:16.436Z,72.64
2018-04-18T02:13:44.062Z,72.85
2018-04-18T02:16:11.537Z,72.90
2018-04-18T02:18:39.028Z,73.13
2018-04-18T02:21:06.547Z,73.25
2018-04-18T02:23:34.049Z,72.97
2018-04-18T02:26:01.568Z,73.25
2018-04-18T02:28:29.063Z,73.49
2018-04-18T02:30:56.579Z,73.33
2018-04-18T02:33:24.077Z,73.21
2018-04-18T02:35:51.613Z,73.64
2018-04-18T02:38:19.116Z,73.86
2018-04-18T02:40:46.618Z,74.15
2018-04-18T02:43:14.119Z,74.43
2018-04-18T02:45:41.606Z,74.70
2018-04-18T02:48:09.139Z,74.79
2018-04-18T02:50:36.733Z,74.97
2018-04-18T02:53:04.233Z,74.39
2018-04-18T02:55:31.722Z,74.40
2018-04-18T02:57:59.220Z,74.50
2018-04-18T03:00:26.792Z,74.93
2018-04-18T03:02:54.314Z,74.76
2018-04-18T03:05:21.821Z,75.13
2018-04-18T03:07:49.347Z,74.95
2018-04-18T03:10:16.824Z,75.07
2018-04-18T03:12:44.303Z,75.14
2018-04-18T03:15:11.809Z,75.31
2018-04-18T03:17:39.307Z,75.48
2018-04-18T03:20:06.798Z,75.67
2018-04-18T03:22:34.294Z,75.86
2018-04-18T03:25:01.822Z,75.94
2018-04-18T03:27:29.432Z,75.94
2018-04-18T03:29:57.030Z,76.05
2018-04-18T03:32:24.554Z,76.19
2018-04-18T03:34:52.058Z,76.53
2018-04-18T03:37:19.582Z,76.67
2018-04-18T03:39:47.067Z,76.98
2018-04-18T03:42:14.689Z,76.70
2018-04-18T03:44:42.184Z,76.85
2018-04-18T03:47:09.697Z,77.20
2018-04-18T03:49:37.217Z,77.16
2018-04-18T03:52:04.869Z,77.15
2018-04-18T03:54:32.384Z,77.43
2018-04-18T03:56:59.887Z,77.36
2018-04-18T03:59:27.376Z,77.42
2018-04-18T04:01:54.883Z,77.64
2018-04-18T04:04:22.367Z,77.69
2018-04-18T04:06:50.138Z,77.68
2018-04-18T04:09:17.647Z,77.83
2018-04-18T04:11:45.251Z,77.61
2018-04-18T04:14:12.743Z,77.62
2018-04-18T04:16:52.150Z,77.61
2018-04-18T04:19:31.564Z,77.73
2018-04-18T04:22:10.851Z,77.65
2018-04-18T04:24:38.389Z,77.42
2018-04-18T04:27:05.886Z,77.47
2018-04-18T04:29:33.403Z,77.48
2018-04-18T04:32:00.933Z,77.47
2018-04-18T04:34:28.467Z,76.91
2018-04-18T04:36:56.048Z,76.56
2018-04-18T04:39:23.795Z,76.23
2018-04-18T04:41:52.276Z,76.72
2018-04-18T04:44:19.761Z,77.16
2018-04-18T04:46:47.447Z,76.21
2018-04-18T04:49:14.958Z,75.82
2018-04-18T04:51:42.457Z,75.21
2018-04-18T04:54:09.947Z,75.61
2018-04-18T04:56:37.479Z,75.44
2018-04-18T04:59:08.232Z,75.92
2018-04-18T05:01:35.743Z,75.38
2018-04-18T05:04:03.295Z,74.54
2018-04-18T05:06:30.818Z,74.72
2018-04-18T05:08:58.426Z,74.37
2018-04-18T05:11:25.943Z,74.10
2018-04-18T05:13:54.344Z,73.87
2018-04-18T05:16:21.838Z,74.08
2018-04-18T05:18:49.335Z,73.75
2018-04-18T05:21:16.969Z,73.44
2018-04-18T05:23:44.613Z,73.38
2018-04-18T05:26:12.137Z,72.94
2018-04-18T05:28:39.695Z,72.25
2018-04-18T05:31:07.195Z,72.12
2018-04-18T05:33:34.771Z,73.38
2018-04-18T05:36:02.290Z,71.86
2018-04-18T05:38:29.810Z,71.15
2018-04-18T05:40:57.313Z,71.80
2018-04-18T05:43:24.886Z,70.51
2018-04-18T05:45:52.416Z,70.73
2018-04-18T05:48:19.908Z,70.10
2018-04-18T05:50:47.410Z,70.14
2018-04-18T05:53:15.032Z,70.31
2018-04-18T05:55:42.541Z,66.12
2018-04-18T05:58:10.191Z,66.39
2018-04-18T06:00:37.853Z,66.74
2018-04-18T06:03:05.413Z,67.11
2018-04-18T06:05:32.916Z,66.70
2018-04-18T06:08:00.511Z,67.38
2018-04-18T06:10:28.014Z,66.14
2018-04-18T06:12:55.520Z,66.18
2018-04-18T06:15:23.024Z,65.34
2018-04-18T06:17:50.534Z,65.02
2018-04-18T06:20:18.059Z,64.51
2018-04-18T06:22:45.572Z,64.36
2018-04-18T06:25:13.085Z,65.19
2018-04-18T06:27:40.646Z,64.24
2018-04-18T06:30:08.158Z,63.37
2018-04-18T06:32:35.675Z,62.95
2018-04-18T06:35:03.183Z,62.82
2018-04-18T06:37:30.684Z,62.31
2018-04-18T06:39:58.268Z,62.69
2018-04-18T06:42:25.874Z,60.67
2018-04-18T06:44:53.399Z,60.17
2018-04-18T06:47:20.978Z,60.27
2018-04-18T06:49:48.495Z,59.55
2018-04-18T06:52:17.999Z,59.19
2018-04-18T06:54:45.606Z,59.37
2018-04-18T06:57:13.107Z,58.56
2018-04-18T06:59:40.577Z,57.72
2018-04-18T07:02:08.092Z,57.56
2018-04-18T07:04:35.593Z,58.17
2018-04-18T07:07:03.109Z,57.32
2018-04-18T07:09:30.634Z,56.14
2018-04-18T07:11:58.125Z,54.68
2018-04-18T07:14:25.677Z,55.59
2018-04-18T07:16:53.503Z,55.85
2018-04-18T07:19:21.038Z,55.06
2018-04-18T07:21:48.568Z,54.96
2018-04-18T07:24:16.467Z,52.63
2018-04-18T07:26:43.953Z,52.36
2018-04-18T07:29:11.582Z,51.75
2018-04-18T07:31:39.094Z,50.91
2018-04-18T07:34:06.616Z,50.28
2018-04-18T07:36:34.122Z,50.04
2018-04-18T07:39:01.632Z,50.44
2018-04-18T07:41:29.132Z,50.74
2018-04-18T07:43:56.696Z,50.15
2018-04-18T07:46:24.191Z,50.29
2018-04-18T07:48:51.697Z,49.27
2018-04-18T07:51:20.046Z,49.17
2018-04-18T07:53:47.594Z,49.09
2018-04-18T07:56:15.102Z,48.24
2018-04-18T07:58:42.749Z,47.29
2018-04-18T08:01:10.256Z,48.58
2018-04-18T08:03:37.909Z,46.22
2018-04-18T08:06:05.479Z,46.30
2018-04-18T08:08:33.036Z,45.08
2018-04-18T08:11:00.556Z,46.93
2018-04-18T08:13:28.041Z,46.82
2018-04-18T08:15:55.597Z,46.19
2018-04-18T08:18:23.112Z,45.83
2018-04-18T08:20:50.625Z,43.91
2018-04-18T08:23:18.130Z,42.86
2018-04-18T08:25:45.781Z,42.40
2018-04-18T08:28:13.283Z,42.71
2018-04-18T08:30:40.780Z,42.22
2018-04-18T08:33:08.299Z,40.65
2018-04-18T08:35:35.802Z,39.95
2018-04-18T08:38:03.335Z,40.43
2018-04-18T08:40:30.849Z,39.97
2018-04-18T08:42:58.348Z,40.09
2018-04-18T08:45:25.837Z,38.77
2018-04-18T08:47:53.349Z,38.17
2018-04-18T08:50:20.875Z,35.30
2018-04-18T08:52:48.395Z,34.99
2018-04-18T08:55:15.907Z,32.82
2018-04-18T08:57:43.386Z,35.26
2018-04-18T09:00:10.883Z,35.37
2018-04-18T09:02:38.382Z,36.77
2018-04-18T09:05:05.970Z,36.45
2018-04-18T09:07:33.463Z,34.80
2018-04-18T09:10:00.949Z,32.90
2018-04-18T09:12:28.452Z,32.10
2018-04-18T09:14:55.943Z,30.87
2018-04-18T09:17:23.417Z,31.39
2018-04-18T09:19:50.913Z,31.20
2018-04-18T09:22:18.423Z,29.98
2018-04-18T09:24:46.110Z,30.57
2018-04-18T09:27:13.607Z,30.29
2018-04-18T09:29:41.142Z,29.75
2018-04-18T09:32:08.648Z,30.27
2018-04-18T09:34:36.137Z,30.29
2018-04-18T09:37:03.750Z,28.72
2018-04-18T09:39:31.240Z,29.74
2018-04-18T09:41:58.738Z,28.29
2018-04-18T09:44:26.244Z,29.22
2018-04-18T09:46:53.730Z,28.14
2018-04-18T09:49:21.332Z,28.27
2018-04-18T09:51:48.847Z,28.98
2018-04-18T09:54:16.667Z,29.46
2018-04-18T09:56:44.225Z,30.28
2018-04-18T09:59:11.738Z,28.04
2018-04-18T10:01:43.031Z,27.46
2018-04-18T10:04:10.629Z,27.57
2018-04-18T10:06:38.147Z,26.90
2018-04-18T10:09:05.740Z,27.92
2018-04-18T10:11:33.248Z,26.65
2018-04-18T10:14:00.769Z,28.50
2018-04-18T10:16:28.249Z,27.91
2018-04-18T10:18:55.738Z,27.27
2018-04-18T10:21:23.223Z,27.52
2018-04-18T10:23:50.793Z,26.87
2018-04-18T10:26:18.305Z,27.40
2018-04-18T10:28:45.806Z,27.37
2018-04-18T10:31:13.358Z,27.11
2018-04-18T10:33:41.081Z,26.19
2018-04-18T10:36:08.612Z,26.75
2018-04-18T10:38:36.147Z,25.34
2018-04-18T10:41:03.661Z,26.93
2018-04-18T10:43:31.243Z,25.84
2018-04-18T10:45:58.733Z,25.68
2018-04-18T10:48:26.216Z,26.31
2018-04-18T10:50:53.786Z,27.01
2018-04-18T10:53:21.294Z,26.56
2018-04-18T10:55:48.776Z,26.07
2018-04-18T10:58:16.401Z,25.16
2018-04-18T11:00:43.897Z,25.10
2018-04-18T11:03:11.438Z,25.41
2018-04-18T11:05:38.916Z,26.70
2018-04-18T11:08:06.413Z,24.95
2018-04-18T11:10:33.947Z,24.25
2018-04-18T11:13:01.431Z,24.38
2018-04-18T11:15:28.917Z,24.15
2018-04-18T11:17:56.430Z,22.93
2018-04-18T11:20:23.928Z,23.42
2018-04-18T11:22:51.411Z,23.15
2018-04-18T11:25:19.038Z,23.60
2018-04-18T11:27:46.749Z,23.79
2018-04-18T11:30:14.229Z,23.11
2018-04-18T11:32:41.753Z,21.73
2018-04-18T11:35:09.255Z,21.73
2018-04-18T11:37:36.835Z,18.58
2018-04-18T11:40:04.320Z,16.19
2018-04-18T11:42:31.810Z,14.86
2018-04-18T11:44:59.301Z,14.98
2018-04-18T11:47:26.805Z,13.88
2018-04-18T11:49:54.311Z,13.38
2018-04-18T11:52:21.814Z,13.08
2018-04-18T11:54:49.315Z,12.49
2018-04-18T11:57:16.819Z,11.10
2018-04-18T11:59:44.310Z,11.69
2018-04-18T12:02:11.790Z,10.99
2018-04-18T12:04:39.315Z,11.97
2018-04-18T12:07:08.700Z,10.25
2018-04-18T12:09:36.208Z,10.66
2018-04-18T12:12:03.730Z,9.97
2018-04-18T12:14:31.181Z,9.98
2018-04-18T12:16:58.697Z,9.16
2018-04-18T12:19:26.187Z,9.60
2018-04-18T12:21:53.687Z,10.74
2018-04-18T12:24:21.184Z,9.49
2018-04-18T12:26:48.751Z,8.88
2018-04-18T12:29:16.243Z,9.66
2018-04-18T12:31:43.712Z,9.57
2018-04-18T12:34:11.226Z,10.11
2018-04-18T12:36:38.695Z,8.64
2018-04-18T12:39:06.176Z,10.04
2018-04-18T12:41:33.662Z,7.40
2018-04-18T12:44:01.138Z,7.57
2018-04-18T12:46:28.651Z,8.25
2018-04-18T12:48:56.165Z,7.62
2018-04-18T12:51:23.679Z,7.35
2018-04-18T12:53:51.170Z,6.89
2018-04-18T12:56:18.661Z,6.77
2018-04-18T12:58:46.184Z,7.77
2018-04-18T13:01:13.817Z,6.20
2018-04-18T13:03:41.306Z,6.75
2018-04-18T13:06:08.790Z,6.60
2018-04-18T13:08:36.278Z,6.35
2018-04-18T13:11:03.753Z,5.57
2018-04-18T13:13:31.249Z,5.95
2018-04-18T13:15:58.756Z,6.90
2018-04-18T13:18:26.252Z,6.85
2018-04-18T13:20:53.753Z,6.83
2018-04-18T13:23:21.279Z,6.12
2018-04-18T13:25:48.800Z,5.73
2018-04-18T13:28:16.386Z,7.27
2018-04-18T13:30:44.007Z,6.55
2018-04-18T13:33:11.494Z,6.83
2018-04-18T13:35:38.962Z,7.19
2018-04-18T13:38:06.448Z,6.47
2018-04-18T13:40:33.954Z,7.65
2018-04-18T13:43:01.428Z,7.64
2018-04-18T13:45:28.911Z,7.83
2018-04-18T13:47:56.431Z,6.72
2018-04-18T13:50:23.996Z,6.75
2018-04-18T13:52:51.488Z,7.06
2018-04-18T13:55:19.172Z,7.77
2018-04-18T13:57:46.647Z,7.54
2018-04-18T14:00:14.206Z,7.40
2018-04-18T14:02:41.698Z,7.77
2018-04-18T14:05:09.214Z,7.70
2018-04-18T14:07:36.703Z,7.43
2018-04-18T14:10:04.246Z,7.70
2018-04-18T14:12:31.708Z,7.42
2018-04-18T14:14:59.210Z,7.44
2018-04-18T14:17:26.686Z,7.72
2018-04-18T14:19:54.159Z,7.56
2018-04-18T14:22:21.633Z,7.22
2018-04-18T14:24:49.130Z,6.45
2018-04-18T14:27:16.628Z,6.83
2018-04-18T14:29:44.095Z,7.39
2018-04-18T14:32:11.614Z,8.03
2018-04-18T14:34:39.117Z,8.07
2018-04-18T14:37:06.589Z,7.71
2018-04-18T14:39:34.110Z,7.61
2018-04-18T14:42:01.601Z,8.87
2018-04-18T14:44:29.091Z,7.39
2018-04-18T14:46:56.622Z,8.36
2018-04-18T14:49:24.104Z,7.57
2018-04-18T14:51:52.250Z,8.12
2018-04-18T14:54:19.737Z,7.14
2018-04-18T14:56:49.302Z,7.05
2018-04-18T14:59:17.796Z,7.80
2018-04-18T15:01:45.329Z,8.33
2018-04-18T15:04:12.928Z,7.95
2018-04-18T15:06:40.489Z,7.68
2018-04-18T15:09:08.133Z,7.98
2018-04-18T15:11:35.621Z,8.63
2018-04-18T15:14:03.104Z,8.58
2018-04-18T15:16:30.583Z,8.00
2018-04-18T15:18:58.069Z,7.36
2018-04-18T15:21:25.588Z,7.79
2018-04-18T15:23:54.026Z,7.24
2018-04-18T15:26:21.881Z,8.14
2018-04-18T15:28:49.703Z,8.73
2018-04-18T15:31:17.747Z,8.32
2018-04-18T15:33:45.771Z,7.57
2018-04-18T15:36:14.630Z,8.33
2018-04-18T15:38:42.296Z,8.14
2018-04-18T15:41:11.286Z,8.83
2018-04-18T15:43:39.938Z,9.29
2018-04-18T15:46:07.499Z,9.39
2018-04-18T15:48:34.991Z,8.59
2018-04-18T15:51:02.488Z,8.59
2018-04-18T15:53:30.362Z,9.16
2018-04-18T15:55:58.172Z,9.84
2018-04-18T15:58:25.788Z,10.09
2018-04-18T16:00:53.274Z,10.11
2018-04-18T16:03:20.812Z,9.95
2018-04-18T16:05:48.318Z,9.37
2018-04-18T16:08:15.817Z,9.26
2018-04-18T16:10:43.314Z,9.08
2018-04-18T16:13:10.805Z,8.72
2018-04-18T16:15:38.306Z,10.06
2018-04-18T16:18:05.777Z,9.29
2018-04-18T16:20:33.308Z,9.69
2018-04-18T16:23:00.899Z,9.65
2018-04-18T16:25:28.406Z,10.18
2018-04-18T16:27:55.909Z,10.21
2018-04-18T16:30:35.359Z,10.62
2018-04-18T16:33:02.993Z,10.80
2018-04-18T16:35:30.530Z,11.34
2018-04-18T16:37:58.022Z,11.72
2018-04-18T16:40:25.689Z,11.68
2018-04-18T16:42:53.355Z,12.16
2018-04-18T16:45:20.863Z,11.67
2018-04-18T16:47:48.492Z,12.21
2018-04-18T16:50:15.996Z,12.00
2018-04-18T16:52:43.477Z,12.64
2018-04-18T16:55:10.983Z,12.32
2018-04-18T16:57:38.482Z,11.70
2018-04-18T17:00:06.064Z,12.98
2018-04-18T17:02:33.714Z,13.85
2018-04-18T17:05:01.334Z,13.04
2018-04-18T17:07:29.112Z,13.75
2018-04-18T17:09:56.958Z,15.37
2018-04-18T17:12:24.564Z,17.70
2018-04-18T17:14:52.140Z,18.73
2018-04-18T17:17:19.643Z,20.80
2018-04-18T17:19:47.731Z,21.31
2018-04-18T17:22:15.634Z,22.53
2018-04-18T17:24:43.132Z,21.11
2018-04-18T17:27:10.620Z,22.79
2018-04-18T17:29:38.169Z,22.75
2018-04-18T17:32:06.023Z,21.41
2018-04-18T17:34:33.594Z,22.50
2018-04-18T17:37:01.099Z,22.92
2018-04-18T17:39:28.661Z,22.78
2018-04-18T17:41:56.174Z,23.86
2018-04-18T17:44:23.685Z,24.53
2018-04-18T17:46:51.228Z,24.47
2018-04-18T17:49:18.735Z,25.05
2018-04-18T17:51:50.458Z,26.07
2018-04-18T17:54:18.079Z,25.38
2018-04-18T17:56:45.657Z,25.53
2018-04-18T17:59:13.189Z,26.92
2018-04-18T18:01:40.744Z,26.74
2018-04-18T18:04:11.386Z,26.96
2018-04-18T18:06:38.902Z,25.62
2018-04-18T18:09:06.449Z,26.01
2018-04-18T18:11:33.932Z,26.11
2018-04-18T18:14:01.442Z,30.89
2018-04-18T18:16:29.583Z,27.47
2018-04-18T18:18:57.075Z,30.04
2018-04-18T18:21:24.566Z,30.93
2018-04-18T18:23:52.177Z,32.81
2018-04-18T18:26:19.681Z,33.33
2018-04-18T18:28:47.420Z,32.72
2018-04-18T18:31:15.041Z,30.19
2018-04-18T18:33:42.607Z,34.17
2018-04-18T18:36:10.199Z,32.47
2018-04-18T18:38:37.683Z,35.96
2018-04-18T18:41:05.327Z,35.43
2018-04-18T18:43:32.846Z,33.48
2018-04-18T18:46:00.360Z,33.09
2018-04-18T18:48:27.875Z,35.05
2018-04-18T18:50:55.365Z,36.17
2018-04-18T18:53:22.930Z,37.22
2018-04-18T18:55:50.475Z,34.83
2018-04-18T18:58:18.337Z,34.95
2018-04-18T19:00:45.850Z,37.00
2018-04-18T19:03:13.359Z,38.62
2018-04-18T19:05:40.998Z,37.36
2018-04-18T19:08:09.359Z,37.02
2018-04-18T19:10:36.892Z,38.27
2018-04-18T19:13:04.400Z,37.17
2018-04-18T19:15:31.981Z,39.11
2018-04-18T19:17:59.437Z,39.23
2018-04-18T19:20:26.944Z,36.26
2018-04-18T19:22:54.459Z,38.99
2018-04-18T19:25:22.098Z,35.17
2018-04-18T19:27:49.598Z,36.04
2018-04-18T19:30:17.132Z,37.48
2018-04-18T19:32:44.640Z,37.73
2018-04-18T19:35:12.124Z,38.24
2018-04-18T19:37:39.669Z,37.42
2018-04-18T19:40:07.211Z,39.53
2018-04-18T19:42:34.779Z,37.52
2018-04-18T19:45:02.274Z,40.21
2018-04-18T19:47:29.814Z,36.83
2018-04-18T19:49:57.300Z,39.96
2018-04-18T19:52:24.817Z,40.44
2018-04-18T19:54:53.409Z,36.68
2018-04-18T19:57:20.901Z,40.93
2018-04-18T19:59:48.464Z,39.31
2018-04-18T20:02:16.469Z,42.32
2018-04-18T20:04:44.148Z,42.55
2018-04-18T20:07:11.733Z,41.08
2018-04-18T20:09:39.239Z,42.82
2018-04-18T20:12:06.746Z,43.28
2018-04-18T20:14:36.931Z,41.98
2018-04-18T20:17:04.994Z,43.52
2018-04-18T20:19:32.571Z,40.05
2018-04-18T20:22:00.143Z,41.50
2018-04-18T20:24:27.717Z,41.99
2018-04-18T20:26:55.347Z,41.04
2018-04-18T20:29:22.865Z,40.53
2018-04-18T20:31:50.368Z,45.53
2018-04-18T20:34:19.202Z,42.40
2018-04-18T20:36:51.571Z,38.51
2018-04-18T20:39:19.116Z,41.40
2018-04-18T20:42:03.406Z,42.62
2018-04-18T20:44:31.660Z,44.33
2018-04-18T20:46:59.160Z,42.82
2018-04-18T20:49:26.819Z,43.46
2018-04-18T20:51:54.341Z,43.36
2018-04-18T20:54:22.068Z,41.60
2018-04-18T20:56:49.603Z,43.63
2018-04-18T20:59:17.353Z,40.63
2018-04-18T21:01:44.849Z,44.28
2018-04-18T21:04:12.362Z,45.48
2018-04-18T21:06:39.829Z,44.98
2018-04-18T21:09:07.365Z,43.37
2018-04-18T21:11:34.858Z,45.80
2018-04-18T21:14:02.519Z,42.72
2018-04-18T21:16:30.006Z,40.44
2018-04-18T21:18:57.499Z,41.28
2018-04-18T21:21:24.976Z,41.93
2018-04-18T21:23:52.480Z,47.23
2018-04-18T21:26:19.987Z,45.81
2018-04-18T21:28:47.602Z,40.99
2018-04-18T21:31:15.075Z,44.42
2018-04-18T21:33:42.593Z,45.43
2018-04-18T21:36:10.101Z,44.24
2018-04-18T21:38:37.657Z,41.46
2018-04-18T21:41:05.212Z,42.00
2018-04-18T21:43:32.875Z,45.58
2018-04-18T21:46:00.350Z,43.77
2018-04-18T21:48:27.954Z,43.94
2018-04-18T21:50:55.520Z,44.55
2018-04-18T21:53:23.021Z,44.51
2018-04-18T21:55:50.535Z,42.65
2018-04-18T21:58:18.035Z,43.55
2018-04-18T22:00:45.532Z,46.02
2018-04-18T22:03:13.029Z,46.29
2018-04-18T22:05:40.523Z,47.88
2018-04-18T22:08:08.010Z,48.30
2018-04-18T22:10:35.518Z,44.41
2018-04-18T22:13:02.996Z,43.83
2018-04-18T22:15:30.488Z,45.68
2018-04-18T22:17:57.972Z,49.24
2018-04-18T22:20:25.632Z,47.24
2018-04-18T22:22:53.102Z,45.37
2018-04-18T22:25:20.608Z,47.09
2018-04-18T22:27:48.119Z,46.01
2018-04-18T22:30:15.618Z,48.79
2018-04-18T22:32:43.113Z,48.95
2018-04-18T22:35:10.603Z,47.47
2018-04-18T22:37:38.156Z,49.04
2018-04-18T22:40:05.649Z,47.46
2018-04-18T22:42:33.217Z,48.62
2018-04-18T22:45:00.956Z,47.14
2018-04-18T22:47:28.506Z,50.23
2018-04-18T22:49:56.014Z,49.80
2018-04-18T22:52:23.532Z,50.27
2018-04-18T22:54:51.057Z,47.70
2018-04-18T22:57:19.004Z,48.97
2018-04-18T22:59:46.652Z,49.84
2018-04-18T23:02:14.222Z,50.92
2018-04-18T23:04:41.713Z,50.41
2018-04-18T23:07:09.211Z,50.04
2018-04-18T23:09:36.717Z,48.23
2018-04-18T23:12:04.215Z,50.03
2018-04-18T23:14:31.741Z,50.49
2018-04-18T23:16:59.260Z,51.08
2018-04-18T23:19:26.765Z,50.68
2018-04-18T23:21:54.259Z,49.95
2018-04-18T23:24:21.775Z,49.80
2018-04-18T23:26:49.299Z,50.29
2018-04-18T23:29:16.957Z,49.99
2018-04-18T23:31:44.476Z,51.63
2018-04-18T23:34:12.017Z,50.12
2018-04-18T23:36:39.514Z,50.07
2018-04-18T23:39:07.019Z,50.65
2018-04-18T23:41:34.544Z,51.58
2018-04-18T23:44:02.061Z,52.08
2018-04-18T23:46:30.670Z,51.24
2018-04-18T23:48:58.230Z,52.18
2018-04-18T23:51:25.687Z,52.13
2018-04-18T23:53:53.186Z,51.55
2018-04-18T23:56:20.724Z,51.38
2018-04-18T23:58:48.474Z,51.63
